createdAt,value
2023-06-02T03:04:23.294Z,20.30
2023-06-02T03:06:51.512Z,12.50
2023-06-02T03:09:18.349Z,12.10
2023-06-02T03:11:45.425Z,12.30
2023-06-02T03:14:13.110Z,12.40
2023-06-02T03:16:42.039Z,12.10
2023-06-02T03:19:09.835Z,12.60
2023-06-02T03:21:43.015Z,12.40
2023-06-02T03:29:09.527Z,12.20
2023-06-02T03:31:36.627Z,12.10
2023-06-02T03:34:04.819Z,12.20
2023-06-02T03:36:38.572Z,12.20
2023-06-02T03:39:06.637Z,12.30
2023-06-02T03:41:34.112Z,12.50
2023-06-02T03:44:01.948Z,12.40
2023-06-02T03:46:29.035Z,12.50
2023-06-02T03:48:56.585Z,12.40
2023-06-02T03:51:23.695Z,12.30
2023-06-02T03:53:51.135Z,12.40
2023-06-02T03:56:18.948Z,12.40
2023-06-02T03:58:45.877Z,12.20
2023-06-02T04:01:13.379Z,12.20
2023-06-02T04:03:42.914Z,12.20
2023-06-02T04:06:10.056Z,12.20
2023-06-02T04:08:37.650Z,12.30
2023-06-02T04:11:04.916Z,12.40
2023-06-02T04:13:32.151Z,12.20
2023-06-02T04:16:00.061Z,12.10
2023-06-02T04:18:28.996Z,12.20
2023-06-02T04:20:56.032Z,12.20
2023-06-02T04:23:22.968Z,12.20
2023-06-02T04:25:50.348Z,12.10
2023-06-02T04:28:17.701Z,12.20
2023-06-02T04:30:44.847Z,12.10
2023-06-02T04:33:13.434Z,12.00
2023-06-02T04:35:40.517Z,12.10
2023-06-02T04:38:09.010Z,12.10
2023-06-02T04:40:38.837Z,12.10
2023-06-02T04:43:06.137Z,11.90
2023-06-02T04:45:33.203Z,12.00
2023-06-02T04:48:00.310Z,12.10
2023-06-02T04:50:28.378Z,12.20
2023-06-02T04:52:55.402Z,12.20
2023-06-02T04:55:22.259Z,12.20
2023-06-02T04:57:49.071Z,11.90
2023-06-02T05:00:17.182Z,12.00
2023-06-02T05:02:44.082Z,12.00
2023-06-02T05:05:11.321Z,12.20
2023-06-02T05:07:38.388Z,12.30
2023-06-02T05:10:05.989Z,12.40
2023-06-02T05:12:33.120Z,12.20
2023-06-02T05:14:59.987Z,12.20
2023-06-02T05:17:30.041Z,12.10
2023-06-02T05:19:57.036Z,12.20
2023-06-02T05:22:24.019Z,12.00
2023-06-02T05:24:51.129Z,12.00
2023-06-02T05:27:18.006Z,11.70
2023-06-02T05:29:44.940Z,12.20
2023-06-02T05:32:12.435Z,12.20
2023-06-02T05:34:40.486Z,12.10
2023-06-02T05:37:07.402Z,12.20
2023-06-02T05:39:34.273Z,12.20
2023-06-02T05:42:01.172Z,12.10
2023-06-02T05:44:28.011Z,12.00
2023-06-02T05:46:54.872Z,12.10
2023-06-02T05:49:21.725Z,12.30
2023-06-02T05:51:48.583Z,12.40
2023-06-02T05:54:15.545Z,12.20
2023-06-02T05:56:42.365Z,12.20
2023-06-02T05:59:09.991Z,12.50
2023-06-02T06:01:36.898Z,12.20
2023-06-02T06:04:03.998Z,12.30
2023-06-02T06:06:31.535Z,12.40
2023-06-02T06:08:58.649Z,12.30
2023-06-02T06:11:26.815Z,12.40
2023-06-02T06:13:53.694Z,12.30
2023-06-02T06:16:21.279Z,12.20
2023-06-02T06:18:48.533Z,12.30
2023-06-02T06:21:15.527Z,12.40
2023-06-02T06:23:42.601Z,12.20
2023-06-02T06:26:09.680Z,12.30
2023-06-02T06:28:36.591Z,12.40
2023-06-02T06:31:03.638Z,12.10
2023-06-02T06:33:30.570Z,12.30
2023-06-02T06:35:57.514Z,12.40
2023-06-02T06:38:24.511Z,12.60
2023-06-02T06:40:51.412Z,12.50
2023-06-02T06:45:48.373Z,12.50
2023-06-02T06:48:15.457Z,12.60
2023-06-02T06:50:42.394Z,12.70
2023-06-02T06:53:10.057Z,12.70
2023-06-02T06:55:37.360Z,12.40
2023-06-02T06:58:04.237Z,12.60
2023-06-02T07:00:32.254Z,12.40
2023-06-02T07:02:59.583Z,12.60
2023-06-02T07:05:26.988Z,12.50
2023-06-02T07:07:53.944Z,12.50
2023-06-02T07:10:21.048Z,12.50
2023-06-02T07:12:48.191Z,12.30
2023-06-02T07:15:15.536Z,12.20
2023-06-02T07:17:43.303Z,12.40
2023-06-02T07:20:11.848Z,12.50
2023-06-02T07:22:38.897Z,12.60
2023-06-02T07:25:06.761Z,12.70
2023-06-02T07:27:34.376Z,12.70
2023-06-02T07:30:01.647Z,12.50
2023-06-02T07:32:28.554Z,12.70
2023-06-02T07:34:55.458Z,12.80
2023-06-02T07:37:22.687Z,12.80
2023-06-02T07:39:49.616Z,12.80
2023-06-02T07:42:16.551Z,12.90
2023-06-02T07:44:43.361Z,12.90
2023-06-02T07:47:11.694Z,13.10
2023-06-02T07:49:38.861Z,13.00
2023-06-02T07:52:06.273Z,13.10
2023-06-02T07:54:33.255Z,13.00
2023-06-02T07:57:00.125Z,13.10
2023-06-02T07:59:27.003Z,12.80
2023-06-02T08:01:54.002Z,13.30
2023-06-02T08:04:26.807Z,13.20
2023-06-02T08:06:56.399Z,12.90
2023-06-02T08:09:23.844Z,13.10
2023-06-02T08:11:51.546Z,13.20
2023-06-02T08:14:18.881Z,13.20
2023-06-02T08:19:21.979Z,13.10
2023-06-02T08:21:49.315Z,13.20
2023-06-02T08:24:16.784Z,13.40
2023-06-02T08:26:45.403Z,13.40
2023-06-02T08:29:12.365Z,13.40
2023-06-02T08:31:40.756Z,13.60
2023-06-02T08:34:09.368Z,13.10
2023-06-02T08:36:36.745Z,13.20
2023-06-02T08:39:07.610Z,13.20
2023-06-02T08:41:40.620Z,13.30
2023-06-02T08:44:07.528Z,13.70
2023-06-02T08:46:35.738Z,14.00
2023-06-02T08:49:03.533Z,14.00
2023-06-02T08:51:38.327Z,14.30
2023-06-02T08:54:08.498Z,14.30
2023-06-02T08:56:35.515Z,13.90
2023-06-02T08:59:02.422Z,13.50
2023-06-02T09:01:29.766Z,13.70
2023-06-02T09:03:56.735Z,13.80
2023-06-02T09:06:27.982Z,14.00
2023-06-02T09:09:02.269Z,14.20
2023-06-02T09:11:31.849Z,13.90
2023-06-02T09:13:59.382Z,14.10
2023-06-02T09:16:41.910Z,14.30
2023-06-02T09:19:08.894Z,14.30
2023-06-02T09:21:36.982Z,14.30
2023-06-02T09:24:13.618Z,14.30
2023-06-02T09:26:51.679Z,14.50
2023-06-02T09:29:19.991Z,14.20
2023-06-02T09:31:54.239Z,14.50
2023-06-02T09:34:23.333Z,14.70
2023-06-02T09:36:57.297Z,14.90
2023-06-02T09:39:44.351Z,15.20
2023-06-02T09:42:13.223Z,15.30
2023-06-02T09:44:40.844Z,15.10
2023-06-02T09:47:28.279Z,14.70
2023-06-02T09:49:55.327Z,14.80
2023-06-02T09:52:22.199Z,14.90
2023-06-02T09:54:50.280Z,15.10
2023-06-02T09:57:17.849Z,15.40
2023-06-02T09:59:46.132Z,15.70
2023-06-02T10:02:13.877Z,15.80
2023-06-02T10:04:40.902Z,15.90
2023-06-02T10:07:26.471Z,15.70
2023-06-02T10:10:17.577Z,16.00
2023-06-02T10:13:15.101Z,16.30
2023-06-02T10:16:17.230Z,16.30
2023-06-02T10:19:05.025Z,16.30
2023-06-02T10:21:43.704Z,16.40
2023-06-02T10:24:19.828Z,16.40
2023-06-02T10:26:52.646Z,16.10
2023-06-02T10:29:20.099Z,16.00
2023-06-02T10:31:47.120Z,15.70
2023-06-02T10:34:35.492Z,15.70
2023-06-02T10:37:02.594Z,15.60
2023-06-02T10:39:41.607Z,16.20
2023-06-02T10:42:17.760Z,16.20
2023-06-02T10:44:45.074Z,16.10
2023-06-02T10:47:21.184Z,16.30
2023-06-02T10:49:51.608Z,16.10
2023-06-02T10:52:18.829Z,16.30
2023-06-02T10:54:45.764Z,16.50
2023-06-02T10:57:13.636Z,16.90
2023-06-02T10:59:40.484Z,17.30
2023-06-02T11:02:07.468Z,17.30
2023-06-02T11:04:35.794Z,17.00
2023-06-02T11:07:19.941Z,16.90
2023-06-02T11:09:52.070Z,17.10
2023-06-02T11:12:19.213Z,16.60
2023-06-02T11:15:05.527Z,16.50
2023-06-02T11:17:36.471Z,16.60
2023-06-02T11:20:06.547Z,17.00
2023-06-02T11:22:37.806Z,17.40
2023-06-02T11:25:05.491Z,17.30
2023-06-02T11:27:37.873Z,17.20
2023-06-02T11:30:12.737Z,17.90
2023-06-02T11:35:10.988Z,18.10
2023-06-02T11:37:42.089Z,19.00
2023-06-02T11:40:14.496Z,18.50
2023-06-02T11:47:57.543Z,18.60
